createdAt,value
2023-04-12T00:03:10.215Z,98377.60
2023-04-12T00:08:11.772Z,98380.30
2023-04-12T00:13:12.782Z,98378.80
2023-04-12T00:18:13.742Z,98378.36
2023-04-12T00:23:16.522Z,98377.17
2023-04-12T00:28:18.992Z,98372.23
2023-04-12T00:33:20.023Z,98369.90
2023-04-12T00:38:21.184Z,98370.89
2023-04-12T00:43:23.231Z,98365.46
2023-04-12T00:48:25.729Z,98362.25
2023-04-12T00:53:27.571Z,98360.23
2023-04-12T00:58:28.529Z,98358.08
2023-04-12T01:03:29.967Z,98360.50
2023-04-12T01:09:01.559Z,98358.61
2023-04-12T01:14:21.640Z,98359.88
2023-04-12T01:19:35.216Z,98361.38
2023-04-12T01:24:55.246Z,98365.48
2023-04-12T01:30:00.670Z,98366.31
2023-04-12T01:35:03.934Z,98362.15
2023-04-12T01:40:08.469Z,98357.28
2023-04-12T01:45:10.025Z,98355.98
2023-04-12T01:50:23.118Z,98354.02
2023-04-12T01:55:26.076Z,98360.19
2023-04-12T02:00:28.255Z,98355.71
2023-04-12T02:05:30.658Z,98348.04
2023-04-12T02:10:32.864Z,98347.02
2023-04-12T02:15:34.101Z,98347.37
2023-04-12T02:20:35.330Z,98339.41
2023-04-12T02:25:37.876Z,98342.59
2023-04-12T02:30:40.902Z,98339.49
2023-04-12T02:35:42.819Z,98341.96
2023-04-12T02:40:46.933Z,98342.43
2023-04-12T02:45:50.026Z,98341.63
2023-04-12T02:50:51.115Z,98336.38
2023-04-12T02:55:56.647Z,98334.63
2023-04-12T03:01:00.375Z,98330.99
2023-04-12T03:06:05.632Z,98333.30
2023-04-12T03:11:08.070Z,98335.00
2023-04-12T03:16:22.769Z,98335.07
2023-04-12T03:21:27.638Z,98340.52
2023-04-12T03:26:30.543Z,98346.84
2023-04-12T03:31:35.921Z,98341.19
2023-04-12T03:36:42.254Z,98336.23
2023-04-12T03:41:53.971Z,98334.63
2023-04-12T03:46:57.563Z,98332.94
2023-04-12T03:51:59.092Z,98329.25
2023-04-12T03:57:01.377Z,98325.77
2023-04-12T04:02:09.796Z,98324.50
2023-04-12T04:07:15.789Z,98319.69
2023-04-12T04:12:18.805Z,98315.48
2023-04-12T04:17:21.465Z,98312.77
2023-04-12T04:22:23.205Z,98315.66
2023-04-12T04:27:29.788Z,98312.65
2023-04-12T04:32:33.286Z,98317.27
2023-04-12T04:37:34.989Z,98322.15
2023-04-12T04:42:37.742Z,98333.36
2023-04-12T04:47:40.511Z,98334.45
2023-04-12T04:52:41.753Z,98335.73
2023-04-12T04:57:46.576Z,98343.21
2023-04-12T05:02:48.789Z,98350.16
2023-04-12T05:07:57.480Z,98356.09
2023-04-12T05:12:58.798Z,98364.86
2023-04-12T05:18:00.237Z,98370.24
2023-04-12T05:23:01.871Z,98362.73
2023-04-12T05:28:02.881Z,98356.45
2023-04-12T05:33:03.969Z,98352.16
2023-04-12T05:38:05.618Z,98351.67
2023-04-12T05:43:07.802Z,98353.11
2023-04-12T05:48:09.092Z,98358.92
2023-04-12T05:53:10.140Z,98361.34
2023-04-12T05:58:11.175Z,98361.39
2023-04-12T06:03:12.404Z,98351.16
2023-04-12T06:08:14.137Z,98348.02
2023-04-12T06:13:16.342Z,98338.91
2023-04-12T06:18:17.665Z,98335.61
2023-04-12T06:23:19.805Z,98304.46
2023-04-12T06:28:21.558Z,98301.91
2023-04-12T06:33:25.416Z,98311.48
2023-04-12T06:38:27.191Z,98305.44
2023-04-12T06:43:28.171Z,98307.55
2023-04-12T06:48:29.241Z,98304.95
2023-04-12T06:53:30.567Z,98306.83
2023-04-12T06:58:31.603Z,98314.05
2023-04-12T07:03:34.680Z,98319.80
2023-04-12T07:08:36.041Z,98313.14
2023-04-12T07:13:37.388Z,98309.68
2023-04-12T07:18:39.234Z,98308.73
2023-04-12T07:23:40.473Z,98309.19
2023-04-12T07:28:41.439Z,98310.11
2023-04-12T07:33:43.689Z,98307.70
2023-04-12T07:38:44.942Z,98302.88
2023-04-12T07:43:46.072Z,98299.83
2023-04-12T07:48:47.075Z,98291.58
2023-04-12T07:53:48.140Z,98289.52
2023-04-12T07:58:49.097Z,98289.08
2023-04-12T08:03:50.172Z,98283.50
2023-04-12T08:08:51.286Z,98280.45
2023-04-12T08:13:52.732Z,98282.54
2023-04-12T08:18:53.706Z,98283.23
2023-04-12T08:23:55.801Z,98276.54
2023-04-12T08:28:57.673Z,98271.00
2023-04-12T08:33:59.281Z,98267.56
2023-04-12T08:39:00.674Z,98265.77
2023-04-12T08:44:02.679Z,98267.83
2023-04-12T08:49:03.817Z,98261.91
2023-04-12T08:54:04.975Z,98254.09
2023-04-12T08:59:06.267Z,98255.04
2023-04-12T09:04:07.523Z,98245.60
2023-04-12T09:09:08.914Z,98240.83
2023-04-12T09:14:24.393Z,98236.02
2023-04-12T09:19:35.686Z,98230.57
2023-04-12T09:24:46.731Z,98223.20
2023-04-12T09:29:51.323Z,98218.11
2023-04-12T09:35:01.604Z,98215.49
2023-04-12T09:40:09.900Z,98210.13
2023-04-12T09:45:23.134Z,98207.77
2023-04-12T09:50:28.882Z,98186.29
2023-04-12T09:55:31.335Z,98185.69
2023-04-12T10:00:33.615Z,98184.20
2023-04-12T10:05:35.868Z,98181.45
2023-04-12T10:10:37.591Z,98172.91
2023-04-12T10:15:39.676Z,98169.33
2023-04-12T10:20:42.945Z,98168.90
2023-04-12T10:25:49.789Z,98161.92
2023-04-12T10:30:53.975Z,98160.09
2023-04-12T10:35:59.553Z,98154.29
2023-04-12T10:41:14.244Z,98156.12
2023-04-12T10:46:37.651Z,98155.93
2023-04-12T10:51:40.309Z,98150.47
2023-04-12T10:56:48.458Z,98141.99
2023-04-12T11:02:11.736Z,98134.63
2023-04-12T11:07:15.393Z,98130.48
2023-04-12T11:12:26.468Z,98128.46
2023-04-12T11:17:27.702Z,98122.75
2023-04-12T11:22:31.143Z,98099.10
2023-04-12T11:27:32.294Z,98111.10
2023-04-12T11:32:34.490Z,98109.41
2023-04-12T11:37:35.921Z,98086.20
2023-04-12T11:42:38.947Z,98101.79
2023-04-12T11:47:43.702Z,98103.23
2023-04-12T11:52:44.988Z,98095.35
2023-04-12T11:57:52.989Z,98086.70
2023-04-12T12:03:06.649Z,98084.80
2023-04-12T12:08:08.674Z,98075.25
2023-04-12T12:13:11.436Z,98067.40
2023-04-12T12:18:12.621Z,98058.15
2023-04-12T12:23:35.736Z,98052.55
2023-04-12T12:28:39.667Z,98043.90
2023-04-12T12:33:46.789Z,98042.98
2023-04-12T12:38:52.430Z,98035.68
2023-04-12T12:43:53.435Z,98012.56
2023-04-12T12:48:54.599Z,98031.35
2023-04-12T12:53:55.846Z,98024.29
2023-04-12T12:58:57.176Z,98017.55
2023-04-12T13:03:58.413Z,98007.48
2023-04-12T13:08:59.893Z,97995.55
2023-04-12T13:14:01.202Z,97989.11
2023-04-12T13:19:02.195Z,97988.77
2023-04-12T13:24:03.190Z,97979.65
2023-04-12T13:29:04.441Z,97974.11
2023-04-12T13:34:05.491Z,97977.05
2023-04-12T13:39:06.801Z,97972.11
2023-04-12T13:44:08.002Z,97965.39
2023-04-12T13:49:09.014Z,97953.65
2023-04-12T13:54:10.726Z,97953.82
2023-04-12T13:59:12.048Z,97948.50
2023-04-12T14:04:13.065Z,97944.43
2023-04-12T14:09:27.800Z,97940.73
2023-04-12T14:14:28.737Z,97935.02
2023-04-12T14:19:30.309Z,97937.70
2023-04-12T14:24:31.320Z,97935.14
2023-04-12T14:29:33.571Z,97931.08
2023-04-12T14:34:37.393Z,97928.71
2023-04-12T14:39:41.060Z,97925.99
2023-04-12T14:44:42.027Z,97925.55
2023-04-12T14:49:43.156Z,97917.55
2023-04-12T14:54:44.042Z,97909.80
2023-04-12T14:59:45.466Z,97903.00
2023-04-12T15:04:50.398Z,97899.52
2023-04-12T15:09:51.480Z,97895.85
2023-04-12T15:14:53.271Z,97893.11
2023-04-12T15:19:54.680Z,97890.45
2023-04-12T15:24:56.120Z,97888.15
2023-04-12T15:29:57.905Z,97884.14
2023-04-12T15:35:02.826Z,97880.69
2023-04-12T15:40:12.830Z,97886.77
2023-04-12T15:45:13.907Z,97880.29
2023-04-12T15:50:14.933Z,97874.45
2023-04-12T15:55:21.125Z,97870.09
2023-04-12T16:00:25.583Z,97864.59
2023-04-12T16:05:26.906Z,97863.41
2023-04-12T16:10:27.973Z,97858.63
2023-04-12T16:15:28.919Z,97857.67
2023-04-12T16:20:31.011Z,97854.39
2023-04-12T16:25:33.145Z,97852.39
2023-04-12T16:30:34.489Z,97846.98
2023-04-12T16:35:35.938Z,97847.48
2023-04-12T16:40:47.136Z,97836.39
2023-04-12T16:45:48.509Z,97821.74
2023-04-12T16:50:49.488Z,97822.04
2023-04-12T16:55:50.767Z,97820.18
2023-04-12T17:00:52.710Z,97819.11
2023-04-12T17:05:53.886Z,97818.91
2023-04-12T17:10:54.852Z,97814.86
2023-04-12T17:15:55.995Z,97814.21
2023-04-12T17:20:57.998Z,97816.02
2023-04-12T17:25:59.058Z,97815.31
2023-04-12T17:31:01.828Z,97813.65
2023-04-12T17:36:03.734Z,97826.88
2023-04-12T17:41:05.862Z,97832.86
2023-04-12T17:46:06.882Z,97835.89
2023-04-12T17:51:09.168Z,97834.95
2023-04-12T17:56:10.124Z,97830.49
2023-04-12T18:01:11.224Z,97832.65
2023-04-12T18:06:13.145Z,97838.87
2023-04-12T18:11:14.081Z,97841.98
2023-04-12T18:16:15.251Z,97842.15
2023-04-12T18:21:20.329Z,97840.77
2023-04-12T18:26:22.467Z,97840.92
2023-04-12T18:31:23.816Z,97834.59
2023-04-12T18:36:26.494Z,97833.02
2023-04-12T18:41:27.767Z,97838.23
2023-04-12T18:46:28.991Z,97845.29
2023-04-12T18:51:32.023Z,97851.63
2023-04-12T18:56:33.006Z,97846.29
2023-04-12T19:01:35.054Z,97847.09
2023-04-12T19:06:36.338Z,97852.12
2023-04-12T19:11:37.720Z,97849.17
2023-04-12T19:16:38.827Z,97850.81
2023-04-12T19:21:40.337Z,97845.80
2023-04-12T19:26:46.215Z,97855.24
2023-04-12T19:31:48.848Z,97854.34
2023-04-12T19:36:49.945Z,97849.90
2023-04-12T19:41:54.193Z,97841.20
2023-04-12T19:46:55.393Z,97839.98
2023-04-12T19:51:58.315Z,97828.02
2023-04-12T19:56:59.506Z,97824.71
2023-04-12T20:02:01.039Z,97822.77
2023-04-12T20:07:02.217Z,97819.00
2023-04-12T20:12:05.890Z,97818.18
2023-04-12T20:17:07.320Z,97809.82
2023-04-12T20:22:08.391Z,97814.88
2023-04-12T20:27:10.702Z,97815.35
2023-04-12T20:32:13.520Z,97810.67
2023-04-12T20:37:16.227Z,97807.11
2023-04-12T20:42:19.917Z,97801.70
2023-04-12T20:47:21.702Z,97800.01
2023-04-12T20:52:22.913Z,97792.02
2023-04-12T20:57:24.959Z,97786.55
2023-04-12T21:02:26.105Z,97783.04
2023-04-12T21:07:29.325Z,97785.27
2023-04-12T21:12:31.519Z,97783.11
2023-04-12T21:17:35.226Z,97780.77
2023-04-12T21:22:36.296Z,97775.72
2023-04-12T21:27:37.767Z,97775.00
2023-04-12T21:32:40.332Z,97771.81
2023-04-12T21:37:41.709Z,97774.04
2023-04-12T21:42:45.386Z,97774.09
2023-04-12T21:48:02.172Z,97775.96
2023-04-12T21:53:23.226Z,97768.84
2023-04-12T21:58:24.181Z,97765.44
2023-04-12T22:03:25.640Z,97757.11
2023-04-12T22:08:26.740Z,97758.61
2023-04-12T22:13:27.839Z,97763.88
2023-04-12T22:18:30.969Z,97765.22
2023-04-12T22:23:31.969Z,97757.40
2023-04-12T22:28:35.575Z,97755.17
2023-04-12T22:33:37.427Z,97747.35
2023-04-12T22:38:38.537Z,97746.65
2023-04-12T22:43:42.645Z,97742.52
2023-04-12T22:48:47.410Z,97736.17
2023-04-12T22:53:49.650Z,97737.12
2023-04-12T22:58:50.640Z,97726.05
2023-04-12T23:03:52.067Z,97709.60
2023-04-12T23:08:53.525Z,97699.12
2023-04-12T23:14:01.073Z,97694.89
2023-04-12T23:19:05.594Z,97697.07
2023-04-12T23:24:07.425Z,97693.81
2023-04-12T23:29:08.487Z,97693.73
2023-04-12T23:34:09.455Z,97690.13
2023-04-12T23:39:10.983Z,97680.25
2023-04-12T23:44:27.298Z,97668.70
2023-04-12T23:49:31.059Z,97661.76
2023-04-12T23:54:45.665Z,97661.75
2023-04-12T23:59:46.605Z,97649.50
